Time;durP1;ratioP1;P1;durP2;ratioP2;P2;SDS_P1;SDS_P2;PMS_P1;PMS_P2;Temp;Humidity;BMP_temperature;BMP_pressure;BME280_temperature;BME280_humidity;BME280_pressure;Samples;Min_cycle;Max_cycle;Signal;HPM_P1;HPM_P2
2021/01/20 00:01:08;;;;;;;8.77;3.37;;;4.90;99.40;;;;;;5017043;28;20473;-87
2021/01/20 00:03:34;;;;;;;4.43;2.97;;;5.00;99.40;;;;;;5020595;28;20455;-87
2021/01/20 00:06:03;;;;;;;6.33;3.50;;;5.00;99.20;;;;;;5009814;28;20511;-87
2021/01/20 00:08:29;;;;;;;8.97;3.47;;;5.10;99.20;;;;;;5013426;28;20489;-87
2021/01/20 00:10:57;;;;;;;3.10;2.10;;;5.10;99.20;;;;;;5011494;28;20953;-87
2021/01/20 00:13:25;;;;;;;3.40;2.30;;;5.10;99.30;;;;;;5012587;28;20798;-87
2021/01/20 00:15:54;;;;;;;2.87;1.80;;;5.10;99.40;;;;;;5018114;28;20505;-85
2021/01/20 00:18:21;;;;;;;2.53;2.00;;;5.10;99.50;;;;;;5022409;28;20492;-85
2021/01/20 00:20:48;;;;;;;3.90;2.00;;;5.10;99.40;;;;;;5023161;28;20450;-86
2021/01/20 00:23:15;;;;;;;2.27;1.97;;;5.20;99.50;;;;;;5021945;28;20456;-87
2021/01/20 00:25:42;;;;;;;5.03;2.57;;;5.20;99.60;;;;;;5021951;28;20466;-86
2021/01/20 00:31:36;;;;;;;4.23;3.00;;;5.20;99.70;;;;;;5020466;28;20457;-86
2021/01/20 00:34:50;;;;;;;6.50;3.17;;;5.20;99.70;;;;;;4960568;28;20492;-86
2021/01/20 00:37:52;;;;;;;4.07;2.73;;;5.20;99.80;;;;;;4960409;28;20441;-86
2021/01/20 00:40:19;;;;;;;2.40;2.10;;;5.30;99.90;;;;;;4957832;28;20449;-87
2021/01/20 00:42:46;;;;;;;1.97;1.77;;;5.30;99.90;;;;;;5008732;28;20453;-87
2021/01/20 00:45:14;;;;;;;3.40;2.20;;;5.30;99.90;;;;;;5020161;28;20501;-87
2021/01/20 00:47:42;;;;;;;2.00;1.67;;;5.30;99.90;;;;;;5027934;28;20447;-86
2021/01/20 00:50:09;;;;;;;7.43;2.87;;;5.30;99.90;;;;;;5022762;28;20543;-85
2021/01/20 00:52:36;;;;;;;2.70;1.93;;;5.40;99.90;;;;;;5021859;28;20472;-86
2021/01/20 00:55:03;;;;;;;3.37;2.13;;;5.30;99.90;;;;;;5021230;28;20468;-87
2021/01/20 00:57:30;;;;;;;3.27;2.30;;;5.30;99.90;;;;;;5022259;28;20503;-86
2021/01/20 00:59:57;;;;;;;2.90;2.30;;;5.30;99.90;;;;;;5019875;28;20465;-86
2021/01/20 01:02:24;;;;;;;2.27;1.90;;;5.30;99.90;;;;;;5022140;28;20476;-87
2021/01/20 01:04:52;;;;;;;2.77;2.03;;;5.30;99.90;;;;;;5021768;28;20473;-87
2021/01/20 01:07:18;;;;;;;2.17;1.90;;;5.30;99.90;;;;;;5021775;28;20473;-86
2021/01/20 01:09:45;;;;;;;4.00;2.30;;;5.20;99.90;;;;;;5021657;28;20872;-86
2021/01/20 01:12:11;;;;;;;4.57;2.47;;;5.20;99.90;;;;;;5022299;28;21023;-87
2021/01/20 01:14:38;;;;;;;4.53;2.37;;;5.10;99.90;;;;;;5020966;28;20484;-86
2021/01/20 01:17:05;;;;;;;5.30;2.83;;;5.10;99.90;;;;;;5021192;28;20479;-86
2021/01/20 01:19:31;;;;;;;4.43;2.37;;;5.10;99.90;;;;;;5021814;28;20452;-86
2021/01/20 01:21:59;;;;;;;3.20;2.43;;;5.10;99.90;;;;;;5021842;28;20426;-87
2021/01/20 01:24:25;;;;;;;4.80;2.50;;;5.10;99.90;;;;;;5021403;28;20460;-86
2021/01/20 01:26:52;;;;;;;3.30;2.93;;;5.00;99.90;;;;;;5021948;28;20577;-86
2021/01/20 01:29:19;;;;;;;4.17;3.73;;;5.00;99.90;;;;;;5019171;28;20520;-86
2021/01/20 01:31:45;;;;;;;4.73;3.23;;;5.00;99.90;;;;;;5021153;28;20452;-86
2021/01/20 01:34:12;;;;;;;4.70;2.97;;;4.90;99.90;;;;;;5021549;28;20444;-86
2021/01/20 01:36:38;;;;;;;7.47;3.33;;;4.90;99.90;;;;;;5021378;28;20473;-87
2021/01/20 01:39:06;;;;;;;7.07;4.40;;;5.00;99.90;;;;;;5020727;28;20958;-86
2021/01/20 01:41:32;;;;;;;4.97;3.80;;;5.10;99.90;;;;;;5021466;28;20423;-87
2021/01/20 01:43:58;;;;;;;5.93;3.60;;;5.10;99.90;;;;;;5020924;28;20450;-87
2021/01/20 01:46:25;;;;;;;5.70;3.70;;;5.00;99.90;;;;;;5020504;28;20458;-87
2021/01/20 01:48:53;;;;;;;6.70;3.77;;;5.00;99.90;;;;;;5020548;28;20449;-87
2021/01/20 01:51:19;;;;;;;7.60;5.23;;;4.90;99.90;;;;;;5020686;28;20469;-86
2021/01/20 01:53:46;;;;;;;6.37;4.63;;;4.90;99.90;;;;;;5023404;28;20798;-86
2021/01/20 01:56:13;;;;;;;7.50;4.80;;;4.90;99.90;;;;;;5025159;28;20479;-86
2021/01/20 01:58:39;;;;;;;4.60;3.83;;;4.80;99.90;;;;;;5024269;28;20454;-87
2021/01/20 02:01:05;;;;;;;6.73;5.10;;;4.80;99.90;;;;;;5023861;28;20804;-87
2021/01/20 02:03:32;;;;;;;5.70;3.63;;;4.80;99.90;;;;;;5025204;28;20442;-86
2021/01/20 02:05:58;;;;;;;8.20;4.60;;;4.90;99.90;;;;;;5024459;28;20973;-86
2021/01/20 02:08:24;;;;;;;5.37;3.10;;;5.00;99.90;;;;;;5024146;28;20497;-87
2021/01/20 02:10:52;;;;;;;5.27;4.67;;;5.00;99.90;;;;;;5025597;28;20813;-87
2021/01/20 02:13:30;;;;;;;11.47;5.20;;;5.00;99.90;;;;;;5025208;28;20947;-87
2021/01/20 02:16:03;;;;;;;5.23;4.30;;;5.00;99.90;;;;;;5023774;28;20478;-87
2021/01/20 02:18:33;;;;;;;4.47;4.07;;;5.00;99.90;;;;;;5022525;28;20447;-87
2021/01/20 02:21:43;;;;;;;6.60;4.87;;;5.00;99.90;;;;;;5022738;28;20445;-86
2021/01/20 02:24:13;;;;;;;6.27;5.10;;;4.90;99.90;;;;;;5024274;28;20449;-87
2021/01/20 02:26:50;;;;;;;6.70;4.87;;;4.90;99.90;;;;;;5024935;28;20438;-87
2021/01/20 02:29:31;;;;;;;7.53;5.03;;;4.90;99.90;;;;;;5022171;28;20464;-87
2021/01/20 02:32:01;;;;;;;7.70;6.20;;;4.80;99.90;;;;;;5024771;28;20441;-87
2021/01/20 02:34:29;;;;;;;6.87;4.43;;;4.80;99.90;;;;;;5021959;28;20922;-88
2021/01/20 02:36:56;;;;;;;5.80;4.47;;;4.70;99.90;;;;;;5023909;28;21055;-87
2021/01/20 02:39:23;;;;;;;5.50;4.10;;;4.70;99.90;;;;;;5022901;28;20438;-86
2021/01/20 02:41:49;;;;;;;6.37;4.23;;;4.70;99.90;;;;;;5024805;28;20442;-86
2021/01/20 02:44:15;;;;;;;6.47;3.83;;;4.70;99.90;;;;;;5024098;28;20448;-88
2021/01/20 02:46:42;;;;;;;5.30;3.90;;;4.70;99.90;;;;;;5023775;28;20495;-86
2021/01/20 02:49:10;;;;;;;3.80;3.00;;;4.70;99.90;;;;;;5022454;28;20441;-86
2021/01/20 02:51:48;;;;;;;3.80;2.73;;;4.60;99.90;;;;;;5024588;28;20442;-87
2021/01/20 02:54:16;;;;;;;5.80;4.50;;;4.60;99.90;;;;;;5021749;28;20441;-87
2021/01/20 02:56:47;;;;;;;4.43;3.87;;;4.60;99.90;;;;;;5021448;28;20481;-87
2021/01/20 02:59:14;;;;;;;5.57;3.80;;;4.60;99.90;;;;;;5022552;28;20472;-87
2021/01/20 03:01:46;;;;;;;6.03;3.80;;;4.50;99.90;;;;;;5023835;28;20990;-87
2021/01/20 03:04:16;;;;;;;4.73;3.67;;;4.40;99.90;;;;;;5023175;28;20452;-87
2021/01/20 03:06:45;;;;;;;5.53;3.73;;;4.40;99.90;;;;;;5020945;28;20457;-87
2021/01/20 03:09:13;;;;;;;5.00;3.60;;;4.40;99.90;;;;;;5023191;28;20442;-87
2021/01/20 03:11:45;;;;;;;3.70;3.00;;;4.30;99.90;;;;;;5023216;28;20511;-87
2021/01/20 03:14:12;;;;;;;3.97;3.13;;;4.30;99.90;;;;;;5023037;28;20445;-87
2021/01/20 03:16:39;;;;;;;5.60;3.40;;;4.20;99.90;;;;;;5022725;28;20513;-86
2021/01/20 03:19:05;;;;;;;5.20;3.50;;;4.20;99.90;;;;;;5023104;28;20464;-87
2021/01/20 03:21:32;;;;;;;4.23;3.33;;;4.20;99.90;;;;;;5023239;28;20441;-87
2021/01/20 03:23:58;;;;;;;4.77;3.80;;;4.20;99.90;;;;;;5019604;28;20503;-87
2021/01/20 03:26:25;;;;;;;7.13;2.80;;;4.30;99.90;;;;;;5023359;28;20461;-87
2021/01/20 03:28:51;;;;;;;5.37;3.60;;;4.30;99.90;;;;;;5023249;28;20454;-87
2021/01/20 03:31:17;;;;;;;5.50;4.70;;;4.40;99.90;;;;;;5023331;28;20445;-87
2021/01/20 03:33:43;;;;;;;5.87;3.60;;;4.40;99.90;;;;;;5021296;28;20448;-88
2021/01/20 03:36:10;;;;;;;3.93;3.50;;;4.40;99.90;;;;;;5023017;28;20477;-86
2021/01/20 03:38:37;;;;;;;4.87;3.40;;;4.40;99.90;;;;;;5023254;28;20445;-87
2021/01/20 03:41:03;;;;;;;4.63;3.37;;;4.30;99.90;;;;;;5025027;28;20529;-87
2021/01/20 03:43:29;;;;;;;4.47;3.37;;;4.40;99.90;;;;;;5021570;28;20815;-87
2021/01/20 03:45:55;;;;;;;4.33;2.93;;;4.40;99.90;;;;;;5022960;28;20454;-87
2021/01/20 03:48:22;;;;;;;4.97;2.90;;;4.40;99.90;;;;;;5021638;28;20949;-87
2021/01/20 03:50:48;;;;;;;3.90;3.50;;;4.40;99.90;;;;;;5022667;28;20449;-88
2021/01/20 03:53:14;;;;;;;4.20;3.80;;;4.30;99.90;;;;;;5020574;28;20691;-86
2021/01/20 03:55:41;;;;;;;3.80;3.50;;;4.20;99.90;;;;;;5021510;28;20481;-86
2021/01/20 03:58:07;;;;;;;6.77;4.73;;;4.20;99.90;;;;;;5022625;28;20481;-86
2021/01/20 04:00:34;;;;;;;5.67;4.90;;;4.10;99.90;;;;;;5021473;28;20962;-87
2021/01/20 04:03:00;;;;;;;3.60;3.17;;;4.00;99.90;;;;;;5019950;28;20504;-86
2021/01/20 04:05:26;;;;;;;5.60;4.40;;;4.10;99.90;;;;;;5022031;28;20500;-87
2021/01/20 04:07:53;;;;;;;4.17;3.30;;;4.00;99.90;;;;;;5022183;28;20452;-87
2021/01/20 04:10:20;;;;;;;4.63;3.90;;;4.10;99.90;;;;;;5022199;28;20444;-87
2021/01/20 04:12:46;;;;;;;5.80;4.10;;;4.10;99.90;;;;;;5019935;28;20513;-86
2021/01/20 04:15:13;;;;;;;5.43;4.17;;;3.90;99.90;;;;;;5022413;28;20466;-87
2021/01/20 04:17:39;;;;;;;5.30;3.93;;;3.90;99.90;;;;;;5022450;28;20939;-86
2021/01/20 04:20:07;;;;;;;4.90;4.00;;;3.80;99.90;;;;;;5022394;28;20447;-86
2021/01/20 04:22:34;;;;;;;6.97;4.53;;;3.70;99.90;;;;;;5020774;28;20451;-87
2021/01/20 04:25:00;;;;;;;4.23;3.13;;;3.70;99.90;;;;;;5019353;28;20473;-86
2021/01/20 04:27:26;;;;;;;5.10;4.20;;;3.60;99.90;;;;;;5021951;28;20446;-86
2021/01/20 04:29:54;;;;;;;6.67;4.20;;;3.50;99.90;;;;;;5021310;28;20458;-86
2021/01/20 04:32:20;;;;;;;6.93;4.30;;;3.50;99.90;;;;;;5022343;28;20445;-86
2021/01/20 04:34:46;;;;;;;6.20;5.37;;;3.50;99.90;;;;;;5021738;28;20461;-86
2021/01/20 04:37:12;;;;;;;6.77;5.13;;;3.50;99.90;;;;;;5021041;28;20504;-88
2021/01/20 04:39:38;;;;;;;6.10;4.27;;;3.60;99.90;;;;;;5020440;28;20442;-87
2021/01/20 04:42:06;;;;;;;6.80;4.60;;;3.60;99.90;;;;;;5022825;28;20883;-86
2021/01/20 04:44:32;;;;;;;5.27;4.77;;;3.60;99.90;;;;;;5019699;28;20473;-87
2021/01/20 04:47:00;;;;;;;5.57;4.53;;;3.70;99.90;;;;;;5012100;28;20446;-87
2021/01/20 04:49:27;;;;;;;9.40;4.80;;;3.80;99.90;;;;;;5011810;28;20450;-87
2021/01/20 04:51:54;;;;;;;5.30;4.00;;;3.80;99.90;;;;;;5012341;28;20446;-87
2021/01/20 04:54:22;;;;;;;5.90;4.10;;;3.90;99.90;;;;;;5011615;28;20449;-87
2021/01/20 04:56:49;;;;;;;5.80;4.60;;;3.80;99.90;;;;;;5012279;28;21204;-87
2021/01/20 04:59:16;;;;;;;6.20;5.60;;;3.80;99.90;;;;;;5012178;28;20438;-87
2021/01/20 05:01:42;;;;;;;6.43;5.27;;;3.80;99.90;;;;;;5012047;28;20462;-86
2021/01/20 05:04:11;;;;;;;8.30;5.77;;;3.80;99.90;;;;;;5012162;28;20872;-87
2021/01/20 05:06:37;;;;;;;8.13;5.07;;;3.80;99.90;;;;;;5011967;28;20515;-87
2021/01/20 05:09:04;;;;;;;7.83;4.60;;;3.90;99.90;;;;;;5011990;28;20449;-87
2021/01/20 05:11:39;;;;;;;9.20;4.70;;;4.00;99.90;;;;;;5011917;28;20451;-87
2021/01/20 05:14:10;;;;;;;6.93;5.23;;;4.10;99.90;;;;;;5012173;28;20511;-87
2021/01/20 05:16:36;;;;;;;8.07;4.80;;;4.30;99.90;;;;;;5011880;28;20997;-87
2021/01/20 05:19:02;;;;;;;7.57;4.80;;;4.30;99.90;;;;;;5013151;28;20454;-86
2021/01/20 05:21:29;;;;;;;9.03;4.93;;;4.40;99.90;;;;;;5014516;28;20584;-87
2021/01/20 05:24:23;;;;;;;9.00;4.70;;;4.50;99.90;;;;;;5011922;28;20450;-86
2021/01/20 05:26:50;;;;;;;9.60;4.83;;;4.60;99.90;;;;;;5011819;28;20822;-87
2021/01/20 05:29:18;;;;;;;9.00;4.80;;;4.60;99.90;;;;;;5011862;28;20458;-87
2021/01/20 05:31:44;;;;;;;5.90;3.53;;;4.70;99.90;;;;;;5011582;28;20456;-87
2021/01/20 05:34:28;;;;;;;5.50;4.13;;;4.80;99.90;;;;;;5011635;28;20509;-88
2021/01/20 05:37:03;;;;;;;7.17;4.50;;;4.80;99.90;;;;;;5011656;28;20547;-88
2021/01/20 05:39:29;;;;;;;10.17;5.80;;;4.90;99.90;;;;;;5011870;28;20938;-87
2021/01/20 05:42:06;;;;;;;8.63;5.53;;;4.90;99.90;;;;;;5011304;28;20454;-87
2021/01/20 05:44:33;;;;;;;6.30;4.67;;;4.90;99.90;;;;;;5011913;28;20481;-87
2021/01/20 05:47:07;;;;;;;8.90;6.33;;;4.90;99.90;;;;;;5011610;28;20445;-87
2021/01/20 05:49:33;;;;;;;8.37;5.97;;;4.90;99.90;;;;;;5011589;28;20458;-87
2021/01/20 05:52:01;;;;;;;8.90;5.47;;;4.90;99.90;;;;;;5011243;28;20970;-87
2021/01/20 05:54:35;;;;;;;9.50;5.50;;;5.00;99.90;;;;;;5011122;28;20450;-86
2021/01/20 05:57:11;;;;;;;7.00;5.47;;;5.00;99.90;;;;;;5011496;28;20536;-86
2021/01/20 05:59:38;;;;;;;10.47;6.50;;;5.00;99.90;;;;;;5011471;28;20454;-87
2021/01/20 06:02:04;;;;;;;8.60;5.50;;;5.00;99.90;;;;;;5008223;28;20445;-88
2021/01/20 06:04:32;;;;;;;10.37;6.77;;;5.10;99.90;;;;;;5011163;28;20469;-86
2021/01/20 06:06:58;;;;;;;8.87;5.00;;;5.10;99.90;;;;;;5011526;28;20821;-87
2021/01/20 06:09:25;;;;;;;9.87;6.07;;;5.10;99.90;;;;;;5011335;28;20465;-86
2021/01/20 06:11:52;;;;;;;11.87;6.50;;;5.20;99.90;;;;;;5010668;28;20497;-86
2021/01/20 06:14:18;;;;;;;9.47;5.30;;;5.10;99.90;;;;;;5010837;28;20563;-87
2021/01/20 06:16:50;;;;;;;12.27;6.43;;;5.10;99.90;;;;;;5011424;28;20485;-86
2021/01/20 06:19:20;;;;;;;6.87;5.20;;;5.10;99.90;;;;;;5011486;28;20431;-86
2021/01/20 06:21:47;;;;;;;6.17;5.17;;;5.20;99.90;;;;;;5010910;28;20489;-87
2021/01/20 06:24:18;;;;;;;7.47;5.93;;;5.20;99.90;;;;;;5011108;28;20458;-87
2021/01/20 06:26:54;;;;;;;7.50;5.20;;;5.20;99.90;;;;;;5011022;28;20485;-86
2021/01/20 06:29:26;;;;;;;6.67;5.90;;;5.20;99.90;;;;;;4991716;28;20521;-87
2021/01/20 06:31:58;;;;;;;7.27;5.63;;;5.20;99.90;;;;;;4991054;28;20488;-87
2021/01/20 06:34:24;;;;;;;5.60;4.40;;;5.20;99.90;;;;;;4991297;28;20451;-86
2021/01/20 06:36:51;;;;;;;13.10;6.80;;;5.20;99.90;;;;;;4991572;28;20489;-86
2021/01/20 06:39:34;;;;;;;10.10;6.00;;;5.30;99.90;;;;;;5012260;28;20508;-87
2021/01/20 06:42:02;;;;;;;9.07;6.53;;;5.20;99.90;;;;;;5014575;28;20470;-87
2021/01/20 06:44:29;;;;;;;10.10;7.60;;;5.10;99.90;;;;;;5014528;28;20441;-86
2021/01/20 06:47:01;;;;;;;14.93;9.43;;;5.10;99.90;;;;;;5014388;28;20441;-86
2021/01/20 06:49:28;;;;;;;16.47;9.60;;;5.10;99.90;;;;;;5014973;28;20457;-86
2021/01/20 06:52:12;;;;;;;19.70;10.00;;;5.00;99.90;;;;;;5022194;28;20442;-87
2021/01/20 06:54:40;;;;;;;16.00;10.47;;;4.90;99.90;;;;;;5022289;28;20611;-87
2021/01/20 06:57:33;;;;;;;15.70;10.03;;;4.80;99.90;;;;;;5017078;28;21002;-87
2021/01/20 07:00:16;;;;;;;12.37;7.80;;;4.80;99.90;;;;;;5026608;28;20879;-87
2021/01/20 07:03:03;;;;;;;7.83;7.03;;;4.70;99.90;;;;;;5022671;28;20529;-86
2021/01/20 07:05:37;;;;;;;14.10;7.97;;;4.70;99.90;;;;;;5023970;28;20543;-87
2021/01/20 07:08:08;;;;;;;8.57;6.40;;;4.70;99.90;;;;;;5024201;28;20441;-88
2021/01/20 07:11:07;;;;;;;9.23;7.50;;;4.70;99.90;;;;;;5023993;28;20441;-86
2021/01/20 07:13:39;;;;;;;15.13;8.40;;;4.70;99.90;;;;;;5023550;28;20441;-86
2021/01/20 07:16:07;;;;;;;10.73;6.87;;;4.70;99.90;;;;;;5022696;28;20623;-87
2021/01/20 07:18:36;;;;;;;8.90;6.70;;;4.80;99.90;;;;;;5009789;28;20460;-86
2021/01/20 07:21:06;;;;;;;9.33;6.40;;;4.80;99.90;;;;;;5020957;28;20433;-87
2021/01/20 07:23:33;;;;;;;15.90;8.47;;;4.80;99.90;;;;;;5025768;28;20450;-88
2021/01/20 07:25:59;;;;;;;10.10;7.47;;;4.80;99.90;;;;;;5011596;28;20490;-88
2021/01/20 07:28:25;;;;;;;12.13;8.00;;;4.90;99.90;;;;;;5017346;28;20454;-88
2021/01/20 07:31:10;;;;;;;14.33;7.27;;;4.90;99.90;;;;;;5016495;28;20453;-87
2021/01/20 07:33:36;;;;;;;13.23;8.83;;;4.90;99.90;;;;;;5011374;28;20446;-87
2021/01/20 07:36:15;;;;;;;15.80;7.93;;;4.90;99.90;;;;;;5018745;28;20511;-87
2021/01/20 07:38:41;;;;;;;11.63;7.93;;;4.90;99.90;;;;;;5008258;28;20481;-86
2021/01/20 07:41:21;;;;;;;10.97;8.23;;;5.00;99.90;;;;;;5005405;28;20438;-87
2021/01/20 07:43:49;;;;;;;10.77;8.03;;;5.00;99.90;;;;;;5011698;28;20446;-86
2021/01/20 07:46:22;;;;;;;10.43;8.20;;;5.00;99.90;;;;;;5007452;28;21030;-87
2021/01/20 07:48:49;;;;;;;12.77;7.63;;;5.00;99.90;;;;;;5010337;28;20500;-87
2021/01/20 07:51:20;;;;;;;11.93;7.30;;;5.00;99.90;;;;;;5009539;28;20488;-87
2021/01/20 07:54:00;;;;;;;15.33;7.87;;;5.10;99.90;;;;;;5005527;28;20450;-88
2021/01/20 07:56:26;;;;;;;11.47;7.47;;;5.10;99.90;;;;;;5001932;28;20492;-87
2021/01/20 07:58:53;;;;;;;10.83;7.73;;;5.20;99.90;;;;;;5002848;28;20439;-87
2021/01/20 08:01:30;;;;;;;13.40;9.27;;;5.20;99.90;;;;;;5003958;28;20439;-86
2021/01/20 08:03:57;;;;;;;14.80;9.00;;;5.20;99.90;;;;;;5006396;28;20949;-87
2021/01/20 08:06:25;;;;;;;9.90;8.20;;;5.20;99.90;;;;;;4993680;28;20972;-86
2021/01/20 08:08:53;;;;;;;11.33;9.00;;;5.20;99.90;;;;;;4996624;28;20454;-87
2021/01/20 08:11:20;;;;;;;13.73;9.20;;;5.20;99.90;;;;;;5013160;28;20453;-86
2021/01/20 08:13:47;;;;;;;17.87;11.70;;;5.30;99.90;;;;;;5013251;28;20961;-86
2021/01/20 08:16:14;;;;;;;17.13;11.07;;;5.30;99.90;;;;;;5012784;28;20897;-87
2021/01/20 08:18:46;;;;;;;16.20;10.57;;;5.40;99.90;;;;;;5012812;28;20442;-88
2021/01/20 08:21:13;;;;;;;13.70;10.30;;;5.40;99.90;;;;;;5013060;28;20454;-87
2021/01/20 08:23:51;;;;;;;12.53;10.07;;;5.40;99.90;;;;;;5013272;28;20464;-87
2021/01/20 08:26:26;;;;;;;14.97;9.40;;;5.50;99.90;;;;;;5018414;28;20996;-86
2021/01/20 08:29:05;;;;;;;19.27;11.70;;;5.50;99.90;;;;;;5022298;28;20448;-87
2021/01/20 08:31:31;;;;;;;11.43;8.13;;;5.60;99.90;;;;;;5021365;28;20465;-86
2021/01/20 08:34:14;;;;;;;11.90;8.10;;;5.70;99.90;;;;;;5022319;28;20446;-86
2021/01/20 08:36:54;;;;;;;12.33;8.47;;;5.70;99.90;;;;;;5019410;28;20482;-86
2021/01/20 08:39:20;;;;;;;15.97;8.47;;;5.80;99.90;;;;;;5022349;28;20456;-86
2021/01/20 08:42:22;;;;;;;10.60;7.37;;;5.70;99.90;;;;;;5022740;28;20451;-86
2021/01/20 08:45:12;;;;;;;17.00;9.43;;;5.80;99.90;;;;;;5020047;28;20472;-87
2021/01/20 08:47:49;;;;;;;12.43;8.60;;;5.90;99.90;;;;;;5025213;28;20441;-87
2021/01/20 08:50:19;;;;;;;21.90;10.13;;;5.80;99.90;;;;;;5021040;28;20787;-87
2021/01/20 08:52:47;;;;;;;13.23;8.50;;;5.90;99.90;;;;;;5021295;28;20462;-86
2021/01/20 08:55:21;;;;;;;13.73;9.23;;;5.90;99.90;;;;;;5018303;28;20462;-86
2021/01/20 08:57:48;;;;;;;12.03;8.43;;;6.00;99.90;;;;;;5026238;28;20551;-87
2021/01/20 09:00:15;;;;;;;22.60;8.97;;;6.00;99.90;;;;;;5026893;28;20495;-88
2021/01/20 09:02:41;;;;;;;17.03;10.43;;;6.00;99.90;;;;;;5014074;28;20442;-88
2021/01/20 09:05:09;;;;;;;12.60;9.93;;;6.00;99.90;;;;;;5011467;28;20581;-88
2021/01/20 09:07:36;;;;;;;13.93;9.17;;;6.00;99.90;;;;;;5013101;28;20812;-87
2021/01/20 09:10:02;;;;;;;14.60;9.03;;;6.10;99.90;;;;;;5012320;28;20455;-87
2021/01/20 09:12:28;;;;;;;17.10;10.00;;;6.10;99.80;;;;;;5012349;28;20453;-86
2021/01/20 09:14:54;;;;;;;12.00;9.90;;;6.10;99.70;;;;;;5011617;28;20470;-87
2021/01/20 09:17:20;;;;;;;10.03;7.87;;;6.10;99.80;;;;;;5011833;28;20543;-87
2021/01/20 09:19:47;;;;;;;11.90;7.83;;;6.10;99.70;;;;;;5012095;28;20500;-87
2021/01/20 09:22:13;;;;;;;16.83;8.40;;;6.10;99.70;;;;;;5011897;28;20980;-87
2021/01/20 09:24:40;;;;;;;12.40;8.67;;;6.10;99.70;;;;;;5011336;28;20489;-86
2021/01/20 09:27:06;;;;;;;13.60;8.97;;;6.10;99.70;;;;;;5011604;28;20481;-87
2021/01/20 09:29:32;;;;;;;12.20;8.57;;;6.10;99.50;;;;;;5012100;28;20473;-87
2021/01/20 09:31:58;;;;;;;16.20;9.10;;;6.20;99.70;;;;;;5011856;28;20450;-87
2021/01/20 09:34:25;;;;;;;16.43;8.60;;;6.20;99.50;;;;;;5009627;28;20484;-87
2021/01/20 09:36:51;;;;;;;14.07;7.90;;;6.20;99.70;;;;;;5011884;28;20489;-86
2021/01/20 09:39:17;;;;;;;11.60;8.50;;;6.30;99.60;;;;;;5011997;28;20867;-87
2021/01/20 09:41:44;;;;;;;13.83;9.47;;;6.30;99.60;;;;;;5011878;28;20971;-87
2021/01/20 09:44:11;;;;;;;13.13;6.40;;;6.40;99.40;;;;;;5010929;28;20514;-87
2021/01/20 09:46:37;;;;;;;14.87;7.43;;;6.40;99.20;;;;;;5011202;28;20446;-86
2021/01/20 09:49:03;;;;;;;10.73;7.77;;;6.50;99.10;;;;;;5011767;28;20434;-87
2021/01/20 09:51:30;;;;;;;22.50;8.97;;;6.60;98.90;;;;;;5011940;28;20941;-87
2021/01/20 09:53:56;;;;;;;9.50;7.90;;;6.50;98.90;;;;;;5014055;28;20446;-87
2021/01/20 09:56:23;;;;;;;9.77;7.97;;;6.50;99.00;;;;;;5015471;28;20999;-87
2021/01/20 09:58:50;;;;;;;14.57;8.60;;;6.50;99.00;;;;;;5011545;28;20477;-87
2021/01/20 10:01:16;;;;;;;11.53;7.47;;;6.60;99.10;;;;;;5011556;28;20496;-87
2021/01/20 10:03:42;;;;;;;12.13;9.07;;;6.70;98.90;;;;;;5011902;28;20525;-86
2021/01/20 10:06:09;;;;;;;11.40;8.00;;;6.70;99.00;;;;;;5011319;28;20837;-87
2021/01/20 10:08:35;;;;;;;13.17;9.37;;;6.70;98.80;;;;;;5011330;28;20450;-88
2021/01/20 10:11:01;;;;;;;13.90;9.37;;;6.70;98.80;;;;;;5011641;28;20834;-87
2021/01/20 10:13:27;;;;;;;15.20;9.93;;;6.80;98.70;;;;;;5011718;28;20458;-87
2021/01/20 10:15:55;;;;;;;15.27;11.77;;;6.90;98.70;;;;;;5015094;28;20466;-87
2021/01/20 10:18:22;;;;;;;17.20;11.67;;;7.00;98.60;;;;;;5014929;28;20532;-87
2021/01/20 10:20:50;;;;;;;17.03;8.30;;;7.00;98.60;;;;;;5015606;28;20449;-87
2021/01/20 10:23:16;;;;;;;13.83;8.97;;;7.10;98.40;;;;;;5014976;28;20884;-87
2021/01/20 10:25:45;;;;;;;17.30;9.60;;;7.30;98.30;;;;;;5015058;28;20484;-86
2021/01/20 10:28:11;;;;;;;24.23;10.60;;;7.50;98.00;;;;;;5014649;28;20982;-87
2021/01/20 10:30:38;;;;;;;16.80;9.87;;;7.50;97.80;;;;;;5014656;28;20449;-87
2021/01/20 10:33:05;;;;;;;13.10;9.00;;;7.60;97.40;;;;;;5015036;28;20981;-87
2021/01/20 10:35:31;;;;;;;17.47;8.87;;;7.60;97.30;;;;;;5014521;28;20462;-88
2021/01/20 10:37:57;;;;;;;12.30;8.20;;;7.60;97.40;;;;;;5014693;28;20477;-87
2021/01/20 10:40:24;;;;;;;12.33;8.40;;;7.60;97.20;;;;;;5014823;28;20822;-88
2021/01/20 10:42:51;;;;;;;11.03;8.13;;;7.70;97.10;;;;;;5014706;28;20453;-87
2021/01/20 10:45:17;;;;;;;15.27;8.30;;;7.70;97.10;;;;;;4997266;28;20470;-88
2021/01/20 10:47:43;;;;;;;14.23;9.40;;;7.90;97.00;;;;;;5005501;28;20451;-88
2021/01/20 10:50:12;;;;;;;15.23;8.93;;;8.00;96.90;;;;;;5012781;28;20453;-86
2021/01/20 10:52:38;;;;;;;12.93;9.90;;;8.10;96.70;;;;;;5014348;28;20450;-88
2021/01/20 10:55:05;;;;;;;14.40;7.90;;;8.10;96.50;;;;;;5014224;28;20446;-87
2021/01/20 10:57:31;;;;;;;13.17;7.90;;;8.20;96.50;;;;;;5014670;28;20477;-88
2021/01/20 10:59:57;;;;;;;15.33;7.77;;;8.20;96.20;;;;;;5014888;28;20866;-88
2021/01/20 11:02:24;;;;;;;12.00;7.20;;;8.20;96.00;;;;;;5014972;28;20450;-87
2021/01/20 11:04:50;;;;;;;14.63;7.90;;;8.20;96.20;;;;;;5014215;28;20476;-91
2021/01/20 11:07:17;;;;;;;14.63;8.40;;;8.10;96.00;;;;;;5014166;28;20481;-84
2021/01/20 11:09:44;;;;;;;24.50;9.30;;;8.20;96.20;;;;;;5014274;28;20449;-84
2021/01/20 11:12:10;;;;;;;11.83;9.33;;;8.40;95.90;;;;;;5014114;28;20442;-89
2021/01/20 11:14:36;;;;;;;13.30;8.97;;;8.40;95.60;;;;;;5009277;28;20535;-86
2021/01/20 11:17:03;;;;;;;18.00;8.67;;;8.40;95.70;;;;;;5011142;28;21062;-87
2021/01/20 11:19:29;;;;;;;13.30;7.53;;;8.40;95.70;;;;;;5004196;28;20498;-88
2021/01/20 11:21:55;;;;;;;15.67;9.37;;;8.40;95.50;;;;;;5002719;28;20457;-88
2021/01/20 11:24:22;;;;;;;13.50;8.07;;;8.50;95.60;;;;;;5002297;28;20462;-87
2021/01/20 11:26:49;;;;;;;11.30;7.60;;;8.60;95.20;;;;;;5004547;28;20439;-86
2021/01/20 11:29:16;;;;;;;11.27;7.83;;;8.70;95.20;;;;;;5013427;28;20528;-86
2021/01/20 11:31:42;;;;;;;9.50;7.43;;;8.70;95.00;;;;;;5013716;28;20487;-85
2021/01/20 11:34:08;;;;;;;15.47;9.90;;;8.60;94.70;;;;;;5013885;28;20965;-86
2021/01/20 11:36:34;;;;;;;11.90;9.20;;;8.60;95.10;;;;;;5003451;28;20489;-86
2021/01/20 11:39:01;;;;;;;9.87;8.20;;;8.50;95.20;;;;;;5023316;28;20443;-86
2021/01/20 11:41:28;;;;;;;17.77;10.17;;;8.40;95.00;;;;;;5020947;28;20445;-86
2021/01/20 11:43:54;;;;;;;14.00;8.93;;;8.40;95.30;;;;;;5020772;28;20438;-87
2021/01/20 11:46:20;;;;;;;11.67;8.80;;;8.40;95.50;;;;;;5021533;28;20875;-86
2021/01/20 11:48:47;;;;;;;19.20;8.57;;;8.50;95.20;;;;;;5016011;28;20485;-88
2021/01/20 11:51:14;;;;;;;12.00;8.20;;;8.40;95.40;;;;;;5012098;28;20441;-86
2021/01/20 11:53:40;;;;;;;20.17;9.13;;;8.40;95.20;;;;;;5016167;28;20452;-86
2021/01/20 11:56:06;;;;;;;14.10;8.20;;;8.40;95.20;;;;;;5010563;28;20474;-87
2021/01/20 11:58:33;;;;;;;16.83;9.60;;;8.30;95.80;;;;;;5011257;28;20450;-85
2021/01/20 12:01:00;;;;;;;13.47;8.00;;;8.40;95.30;;;;;;5015197;28;20488;-86
2021/01/20 12:03:26;;;;;;;11.80;7.80;;;8.40;95.10;;;;;;5011835;28;20426;-86
2021/01/20 12:05:52;;;;;;;18.63;8.37;;;8.40;95.50;;;;;;5012982;28;20835;-86
2021/01/20 12:08:19;;;;;;;10.73;7.67;;;8.50;95.30;;;;;;5013339;28;20445;-85
2021/01/20 12:10:46;;;;;;;13.17;7.77;;;8.50;95.00;;;;;;5011342;28;20441;-86
2021/01/20 12:13:12;;;;;;;13.97;7.33;;;8.50;95.00;;;;;;5026635;28;20434;-86
2021/01/20 12:15:39;;;;;;;13.27;8.40;;;8.50;95.10;;;;;;5016623;28;20458;-86
2021/01/20 12:18:06;;;;;;;25.93;11.07;;;8.60;94.90;;;;;;5010355;28;20482;-85
2021/01/20 12:20:33;;;;;;;14.10;9.70;;;8.60;95.30;;;;;;5018463;28;20442;-86
2021/01/20 12:22:59;;;;;;;13.47;8.80;;;8.60;95.70;;;;;;5018834;28;20487;-86
2021/01/20 12:25:27;;;;;;;15.70;9.77;;;8.60;95.10;;;;;;5012869;28;20470;-86
2021/01/20 12:27:53;;;;;;;16.10;9.00;;;8.60;95.10;;;;;;5016076;28;20466;-87
2021/01/20 12:30:20;;;;;;;18.37;11.30;;;8.60;94.90;;;;;;5017419;28;20489;-87
2021/01/20 12:32:47;;;;;;;14.87;10.07;;;8.60;95.10;;;;;;5017248;28;20455;-86
2021/01/20 12:35:13;;;;;;;14.40;9.67;;;8.60;94.90;;;;;;5014461;28;20985;-86
2021/01/20 12:37:40;;;;;;;18.63;10.50;;;8.60;95.00;;;;;;5016217;28;20477;-86
2021/01/20 12:40:08;;;;;;;13.57;9.20;;;8.50;95.20;;;;;;5019535;28;20452;-86
2021/01/20 12:42:34;;;;;;;11.23;8.67;;;8.50;95.40;;;;;;5018275;28;20969;-86
2021/01/20 12:45:00;;;;;;;11.67;8.37;;;8.60;95.20;;;;;;5021241;28;20565;-86
2021/01/20 12:47:26;;;;;;;12.80;8.33;;;8.60;95.00;;;;;;5017822;28;20435;-86
2021/01/20 12:49:53;;;;;;;10.60;6.53;;;8.70;94.70;;;;;;5015986;28;20439;-86
2021/01/20 12:52:48;;;;;;;11.80;7.20;;;8.70;95.00;;;;;;5013687;28;20447;-86
2021/01/20 12:55:15;;;;;;;14.23;6.87;;;8.80;94.60;;;;;;4937201;29;20484;-85
2021/01/20 12:57:41;;;;;;;14.90;8.17;;;8.70;94.60;;;;;;5010078;28;20488;-86
2021/01/20 13:00:08;;;;;;;11.63;7.83;;;8.70;94.60;;;;;;5008734;28;20447;-86
2021/01/20 13:02:34;;;;;;;10.03;7.60;;;8.70;94.80;;;;;;5016237;28;20442;-86